createdAt,value
2022-12-23T00:01:16.753Z,98869.67
2022-12-23T00:03:49.312Z,98872.06
2022-12-23T00:06:22.808Z,98869.74
2022-12-23T00:08:58.884Z,98874.38
2022-12-23T00:11:31.836Z,98876.58
2022-12-23T00:14:22.277Z,98887.31
2022-12-23T00:16:54.756Z,98889.30
2022-12-23T00:19:27.530Z,98892.77
2022-12-23T00:21:59.877Z,98892.02
2022-12-23T00:24:32.224Z,98892.27
2022-12-23T00:27:04.547Z,98891.26
2022-12-23T00:29:38.427Z,98894.32
2022-12-23T00:32:10.772Z,98896.41
2022-12-23T00:34:43.173Z,98900.27
2022-12-23T00:37:15.522Z,98901.98
2022-12-23T00:40:06.964Z,98904.87
2022-12-23T00:42:54.928Z,98912.14
2022-12-23T00:45:27.565Z,98906.11
2022-12-23T00:48:17.416Z,98915.32
2022-12-23T00:50:52.353Z,98914.41
2022-12-23T00:53:24.802Z,98912.21
2022-12-23T00:55:57.385Z,98910.05
2022-12-23T00:58:29.752Z,98907.35
2022-12-23T01:01:20.067Z,98909.61
2022-12-23T01:04:10.314Z,98912.69
2022-12-23T01:06:42.690Z,98908.27
2022-12-23T01:09:15.355Z,98915.39
2022-12-23T01:11:47.744Z,98909.02
2022-12-23T01:14:20.272Z,98905.47
2022-12-23T01:16:52.661Z,98905.44
2022-12-23T01:19:25.141Z,98909.02
2022-12-23T01:21:57.799Z,98912.42
2022-12-23T01:24:32.620Z,98911.10
2022-12-23T01:27:04.986Z,98913.60
2022-12-23T01:29:37.563Z,98915.81
2022-12-23T01:32:10.013Z,98914.60
2022-12-23T01:34:42.515Z,98917.30
2022-12-23T01:37:14.923Z,98925.57
2022-12-23T01:39:47.377Z,98922.85
2022-12-23T01:42:39.544Z,98924.00
2022-12-23T01:45:18.622Z,98930.27
2022-12-23T01:47:57.543Z,98935.99
2022-12-23T01:50:34.118Z,98934.33
2022-12-23T01:53:09.680Z,98937.31
2022-12-23T01:55:46.160Z,98929.31
2022-12-23T01:58:22.063Z,98934.64
2022-12-23T02:01:13.146Z,98931.88
2022-12-23T02:03:46.992Z,98931.38
2022-12-23T02:06:43.219Z,98936.28
2022-12-23T02:09:21.011Z,98933.02
2022-12-23T02:12:28.565Z,98935.14
2022-12-23T02:15:31.354Z,98933.58
2022-12-23T02:18:18.315Z,98935.65
2022-12-23T02:21:12.192Z,98939.46
2022-12-23T02:24:23.245Z,98938.82
2022-12-23T02:27:10.723Z,98935.62
2022-12-23T02:30:22.391Z,98932.52
2022-12-23T02:33:15.305Z,98941.85
2022-12-23T02:35:55.877Z,98943.33
2022-12-23T02:38:33.407Z,98944.16
2022-12-23T02:41:13.766Z,98949.67
2022-12-23T02:43:50.183Z,98953.70
2022-12-23T02:46:29.241Z,98954.63
2022-12-23T02:49:06.142Z,98952.74
2022-12-23T02:51:41.800Z,98948.48
2022-12-23T02:54:18.722Z,98949.39
2022-12-23T02:56:54.911Z,98948.26
2022-12-23T02:59:31.993Z,98944.98
2022-12-23T03:02:04.515Z,98949.59
2022-12-23T03:04:38.402Z,98951.96
2022-12-23T03:07:18.748Z,98946.52
2022-12-23T03:09:59.651Z,98946.06
2022-12-23T03:12:53.159Z,98938.53
2022-12-23T03:15:39.786Z,98940.74
2022-12-23T03:18:23.003Z,98938.62
2022-12-23T03:21:04.710Z,98938.73
2022-12-23T03:23:43.223Z,98940.85
2022-12-23T03:26:22.516Z,98942.34
2022-12-23T03:28:59.642Z,98943.56
2022-12-23T03:31:34.701Z,98951.45
2022-12-23T03:34:08.874Z,98954.70
2022-12-23T03:36:45.930Z,98957.23
2022-12-23T03:39:21.241Z,98952.39
2022-12-23T03:41:57.609Z,98949.30
2022-12-23T03:44:36.664Z,98946.21
2022-12-23T03:47:13.880Z,98951.96
2022-12-23T03:49:54.159Z,98955.01
2022-12-23T03:52:32.317Z,98960.67
2022-12-23T03:55:09.094Z,98957.42
2022-12-23T03:57:46.530Z,98956.81
2022-12-23T04:00:19.319Z,98955.56
2022-12-23T04:03:00.733Z,98952.96
2022-12-23T04:05:37.662Z,98946.33
2022-12-23T04:08:17.275Z,98953.47
2022-12-23T04:10:49.995Z,98950.69
2022-12-23T04:13:22.379Z,98948.23
2022-12-23T04:15:55.274Z,98953.02
2022-12-23T04:18:28.313Z,98947.89
2022-12-23T04:21:01.037Z,98942.74
2022-12-23T04:23:33.441Z,98944.81
2022-12-23T04:26:06.065Z,98937.50
2022-12-23T04:28:38.411Z,98936.42
2022-12-23T04:31:10.801Z,98938.44
2022-12-23T04:33:43.260Z,98939.24
2022-12-23T04:36:15.606Z,98943.40
2022-12-23T04:38:47.884Z,98945.80
2022-12-23T04:41:20.261Z,98953.27
2022-12-23T04:43:53.362Z,98943.95
2022-12-23T04:46:26.076Z,98949.08
2022-12-23T04:48:58.547Z,98955.02
2022-12-23T04:51:30.844Z,98955.40
2022-12-23T04:54:03.273Z,98961.30
2022-12-23T04:56:35.592Z,98959.38
2022-12-23T04:59:07.950Z,98960.02
2022-12-23T05:01:42.379Z,98961.19
2022-12-23T05:04:15.599Z,98964.54
2022-12-23T05:06:48.004Z,98966.61
2022-12-23T05:09:20.989Z,98965.41
2022-12-23T05:11:53.463Z,98968.40
2022-12-23T05:14:25.844Z,98969.45
2022-12-23T05:17:03.582Z,98963.95
2022-12-23T05:19:39.522Z,98961.15
2022-12-23T05:22:11.891Z,98964.16
2022-12-23T05:24:44.244Z,98962.50
2022-12-23T05:27:16.560Z,98956.85
2022-12-23T05:29:48.985Z,98957.98
2022-12-23T05:32:21.463Z,98953.83
2022-12-23T05:34:53.780Z,98956.52
2022-12-23T05:37:26.154Z,98955.27
2022-12-23T05:39:58.629Z,98961.88
2022-12-23T05:42:31.053Z,98961.55
2022-12-23T05:45:03.533Z,98963.30
2022-12-23T05:47:35.951Z,98961.61
2022-12-23T05:50:11.547Z,98957.39
2022-12-23T05:52:43.934Z,98961.99
2022-12-23T05:55:16.387Z,98968.85
2022-12-23T05:57:48.726Z,98972.92
2022-12-23T06:00:25.493Z,98979.01
2022-12-23T06:02:58.172Z,98984.08
2022-12-23T06:05:30.690Z,98983.05
2022-12-23T06:08:03.020Z,98985.89
2022-12-23T06:10:35.391Z,98979.08
2022-12-23T06:13:07.614Z,98981.71
2022-12-23T06:15:39.888Z,98979.58
2022-12-23T06:18:12.313Z,98982.30
2022-12-23T06:20:46.202Z,98983.20
2022-12-23T06:23:18.547Z,98985.09
2022-12-23T06:25:50.921Z,98987.65
2022-12-23T06:28:23.292Z,98989.40
2022-12-23T06:30:57.186Z,98987.13
2022-12-23T06:33:29.579Z,98991.23
2022-12-23T06:36:01.946Z,98993.51
2022-12-23T06:38:35.122Z,98999.23
2022-12-23T06:41:08.860Z,98993.77
2022-12-23T06:43:41.248Z,98989.48
2022-12-23T06:46:13.776Z,98993.16
2022-12-23T06:48:46.269Z,98993.09
2022-12-23T06:51:18.718Z,98995.27
2022-12-23T06:53:51.173Z,98998.34
2022-12-23T06:56:23.540Z,98995.71
2022-12-23T06:58:56.121Z,98993.85
2022-12-23T07:01:28.674Z,98991.00
2022-12-23T07:04:02.045Z,98995.70
2022-12-23T07:06:34.502Z,98995.33
2022-12-23T07:09:07.510Z,98992.04
2022-12-23T07:11:39.965Z,98993.04
2022-12-23T07:14:12.918Z,98990.36
2022-12-23T07:16:45.453Z,98989.26
2022-12-23T07:19:17.891Z,98990.98
2022-12-23T07:21:50.290Z,98991.14
2022-12-23T07:24:22.669Z,98988.73
2022-12-23T07:26:56.075Z,98983.85
2022-12-23T07:29:28.614Z,98984.39
2022-12-23T07:32:01.994Z,98987.16
2022-12-23T07:34:34.766Z,98994.08
2022-12-23T07:37:07.065Z,99001.13
2022-12-23T07:39:39.718Z,99010.52
2022-12-23T07:45:06.156Z,99022.91
2022-12-23T07:47:38.555Z,99025.61
2022-12-23T07:50:13.118Z,99031.20
2022-12-23T07:52:45.647Z,99025.23
2022-12-23T07:55:18.229Z,99023.28
2022-12-23T07:57:52.516Z,99017.92
2022-12-23T08:00:25.493Z,99017.95
2022-12-23T08:02:58.030Z,99018.33
2022-12-23T08:05:30.704Z,99018.65
2022-12-23T08:08:03.195Z,99014.91
2022-12-23T08:10:35.590Z,99014.70
2022-12-23T08:13:08.012Z,99010.58
2022-12-23T08:15:40.359Z,99011.67
2022-12-23T08:18:12.707Z,99012.61
2022-12-23T08:20:45.159Z,99009.40
2022-12-23T08:23:22.958Z,99012.75
2022-12-23T08:26:03.951Z,99018.88
2022-12-23T08:28:37.252Z,99013.29
2022-12-23T08:31:12.489Z,99016.23
2022-12-23T08:33:46.706Z,99014.42
2022-12-23T08:36:23.304Z,99007.03
2022-12-23T08:38:57.696Z,99008.20
2022-12-23T08:41:32.496Z,99012.13
2022-12-23T08:44:04.988Z,99022.34
2022-12-23T08:46:38.144Z,99021.11
2022-12-23T08:49:11.916Z,99013.92
2022-12-23T08:51:44.634Z,99010.58
2022-12-23T08:54:17.566Z,99010.19
2022-12-23T08:56:49.959Z,99005.48
2022-12-23T08:59:22.376Z,99004.48
2022-12-23T09:01:54.822Z,99009.95
2022-12-23T09:04:27.320Z,99007.14
2022-12-23T09:06:59.873Z,99005.86
2022-12-23T09:09:32.226Z,99004.22
2022-12-23T09:12:04.777Z,98994.66
2022-12-23T09:14:37.317Z,98991.67
2022-12-23T09:17:09.721Z,98990.40
2022-12-23T09:19:43.746Z,98987.26
2022-12-23T09:22:19.625Z,98988.24
2022-12-23T09:24:52.175Z,98992.19
2022-12-23T09:27:24.527Z,98989.59
2022-12-23T09:29:56.923Z,98991.08
2022-12-23T09:32:29.307Z,98990.00
2022-12-23T09:35:01.631Z,98986.36
2022-12-23T09:37:34.028Z,98982.40
2022-12-23T09:40:07.196Z,98980.15
2022-12-23T09:42:54.863Z,98976.91
2022-12-23T09:45:49.787Z,98981.63
2022-12-23T09:48:26.799Z,98980.07
2022-12-23T09:50:59.421Z,98975.67
2022-12-23T09:53:45.953Z,98968.86
2022-12-23T09:56:26.767Z,98969.09
2022-12-23T09:59:12.509Z,98969.96
2022-12-23T10:01:53.882Z,98973.77
2022-12-23T10:04:43.168Z,98976.48
2022-12-23T10:07:29.303Z,98970.83
2022-12-23T10:10:07.418Z,98967.88
2022-12-23T10:12:43.349Z,98963.70
2022-12-23T10:15:27.288Z,98960.40
2022-12-23T10:18:05.391Z,98956.81
2022-12-23T10:20:45.652Z,98954.56
2022-12-23T10:23:26.858Z,98953.23
2022-12-23T10:25:59.385Z,98953.30
2022-12-23T10:28:31.756Z,98951.10
2022-12-23T10:31:39.203Z,98946.92
2022-12-23T10:34:13.521Z,98940.23
2022-12-23T10:36:55.078Z,98937.17
2022-12-23T10:39:37.750Z,98932.14
2022-12-23T10:42:22.542Z,98924.91
2022-12-23T10:45:19.501Z,98928.54
2022-12-23T10:48:02.099Z,98929.90
2022-12-23T10:50:51.527Z,98924.58
2022-12-23T10:53:33.524Z,98919.68
2022-12-23T10:56:08.669Z,98910.65
2022-12-23T10:58:42.567Z,98907.20
2022-12-23T11:01:26.195Z,98902.23
2022-12-23T11:04:08.641Z,98897.35
2022-12-23T11:06:44.930Z,98894.02
2022-12-23T11:09:21.476Z,98891.02
2022-12-23T11:11:59.946Z,98886.05
2022-12-23T11:14:39.283Z,98885.70
2022-12-23T11:17:22.634Z,98881.22
2022-12-23T11:20:14.270Z,98880.26
2022-12-23T11:22:52.421Z,98880.00
2022-12-23T11:25:34.930Z,98882.35
2022-12-23T11:28:13.809Z,98879.73
2022-12-23T11:30:57.185Z,98879.23
2022-12-23T11:33:32.736Z,98879.19
2022-12-23T11:36:08.673Z,98879.61
2022-12-23T11:38:51.922Z,98880.91
2022-12-23T11:41:28.105Z,98881.27
2022-12-23T11:44:02.881Z,98882.77
2022-12-23T11:46:36.461Z,98887.20
2022-12-23T11:49:19.688Z,98886.70
2022-12-23T11:52:03.113Z,98886.39
2022-12-23T11:54:36.003Z,98887.36
2022-12-23T11:57:17.724Z,98889.55
2022-12-23T11:59:56.444Z,98892.56
2022-12-23T12:02:36.707Z,98893.24
2022-12-23T12:05:22.925Z,98890.50
2022-12-23T12:07:59.754Z,98891.64
2022-12-23T12:10:35.611Z,98896.46
2022-12-23T12:13:18.017Z,98898.69
2022-12-23T12:15:57.943Z,98897.37
2022-12-23T12:18:30.908Z,98901.19
2022-12-23T12:21:06.916Z,98905.21
2022-12-23T12:23:45.422Z,98903.52
2022-12-23T12:26:25.150Z,98903.10
2022-12-23T12:29:04.251Z,98906.54
2022-12-23T12:31:40.901Z,98910.73
2022-12-23T12:34:33.427Z,98914.13
2022-12-23T12:37:16.959Z,98917.89
2022-12-23T12:39:57.623Z,98920.71
2022-12-23T12:42:36.498Z,98918.52
2022-12-23T12:45:22.146Z,98913.90
2022-12-23T12:48:18.741Z,98909.61
2022-12-23T12:51:02.414Z,98909.74
2022-12-23T12:53:37.192Z,98904.13
2022-12-23T12:56:16.558Z,98903.40
2022-12-23T12:58:48.877Z,98899.66
2022-12-23T13:01:35.631Z,98899.61
2022-12-23T13:04:34.221Z,98906.14
2022-12-23T13:07:14.612Z,98901.90
2022-12-23T13:09:56.734Z,98907.70
2022-12-23T13:12:41.010Z,98908.80
2022-12-23T13:15:21.688Z,98906.77
2022-12-23T13:18:12.942Z,98910.60
2022-12-23T13:20:52.461Z,98911.52
2022-12-23T13:23:47.865Z,98918.39
2022-12-23T13:26:33.951Z,98923.98
2022-12-23T13:29:30.977Z,98922.51
2022-12-23T13:32:15.145Z,98922.52
2022-12-23T13:34:57.190Z,98921.01
2022-12-23T13:37:40.688Z,98926.41
2022-12-23T13:40:28.770Z,98926.47
2022-12-23T13:43:06.901Z,98931.02
2022-12-23T13:45:42.784Z,98930.02
2022-12-23T13:48:38.073Z,98926.13
2022-12-23T13:51:15.444Z,98922.66
2022-12-23T13:54:04.177Z,98922.91
2022-12-23T13:56:44.100Z,98921.25
2022-12-23T13:59:18.279Z,98919.67
2022-12-23T14:01:52.899Z,98921.70
2022-12-23T14:04:57.797Z,98927.95
2022-12-23T14:07:33.114Z,98931.44
2022-12-23T14:10:21.780Z,98929.55
2022-12-23T14:13:04.077Z,98925.31
2022-12-23T14:16:09.518Z,98924.50
2022-12-23T14:18:57.481Z,98916.88
2022-12-23T14:21:40.388Z,98914.48
2022-12-23T14:24:38.810Z,98914.00
2022-12-23T14:27:43.006Z,98916.06
2022-12-23T14:30:19.222Z,98912.91
2022-12-23T14:32:53.894Z,98912.11
2022-12-23T14:35:49.265Z,98914.02
2022-12-23T14:38:30.231Z,98917.45
2022-12-23T14:41:26.208Z,98918.20
2022-12-23T14:44:02.881Z,98917.87
2022-12-23T14:46:59.224Z,98918.00
2022-12-23T14:49:44.175Z,98927.33
2022-12-23T14:52:51.007Z,98931.25
2022-12-23T14:55:48.124Z,98931.63
2022-12-23T14:58:35.112Z,98929.45
2022-12-23T15:01:14.221Z,98943.36
2022-12-23T15:03:54.599Z,98943.58
2022-12-23T15:06:37.871Z,98943.38
2022-12-23T15:09:23.733Z,98947.19
2022-12-23T15:11:58.789Z,98952.55
2022-12-23T15:14:36.631Z,98960.65
2022-12-23T15:17:25.843Z,98966.52
2022-12-23T15:20:09.356Z,98959.88
2022-12-23T15:22:43.401Z,98954.92
2022-12-23T15:25:33.639Z,98955.03
2022-12-23T15:28:06.757Z,98959.38
2022-12-23T15:30:48.368Z,98956.77
2022-12-23T15:34:00.545Z,98957.51
2022-12-23T15:36:22.722Z,98956.30
2022-12-23T15:38:55.133Z,98958.43
2022-12-23T15:41:27.811Z,98960.31
2022-12-23T15:44:01.950Z,98959.48
2022-12-23T15:46:35.416Z,98956.05
2022-12-23T15:49:07.954Z,98952.59
2022-12-23T15:54:41.619Z,98949.05
2022-12-23T15:57:21.398Z,98953.27
2022-12-23T15:59:54.569Z,98951.59
2022-12-23T16:05:30.834Z,98959.84
2022-12-23T16:08:30.180Z,98961.11
2022-12-23T16:11:13.776Z,98963.48
2022-12-23T16:13:58.780Z,98964.27
2022-12-23T16:16:41.617Z,98964.80
2022-12-23T16:19:40.487Z,98969.81
2022-12-23T16:22:20.773Z,98975.27
2022-12-23T16:24:58.109Z,98977.38
2022-12-23T16:27:38.741Z,98975.05
2022-12-23T16:30:19.375Z,98978.44
2022-12-23T16:32:55.261Z,98975.83
2022-12-23T16:35:39.852Z,98983.23
2022-12-23T16:38:18.488Z,98983.88
2022-12-23T16:40:53.132Z,98990.55
2022-12-23T16:43:26.545Z,98989.49
2022-12-23T16:46:00.072Z,98989.17
2022-12-23T16:48:35.618Z,98990.15
2022-12-23T16:51:11.864Z,98992.23
2022-12-23T16:53:44.167Z,99000.87
2022-12-23T16:56:18.031Z,99009.46
2022-12-23T16:58:50.507Z,99011.39
2022-12-23T17:01:26.051Z,99011.06
2022-12-23T17:03:58.679Z,99006.02
2022-12-23T17:06:31.565Z,99006.35
2022-12-23T17:09:05.137Z,99008.90
2022-12-23T17:11:41.442Z,99009.23
2022-12-23T17:14:19.630Z,99009.10
2022-12-23T17:16:52.914Z,99005.71
2022-12-23T17:19:28.789Z,99006.14
2022-12-23T17:22:04.584Z,99005.23
2022-12-23T17:24:37.283Z,99008.15
2022-12-23T17:27:15.704Z,99008.84
2022-12-23T17:29:48.290Z,99010.30
2022-12-23T17:32:21.222Z,99004.98
2022-12-23T17:34:53.677Z,99004.36
2022-12-23T17:37:26.105Z,99000.01
2022-12-23T17:39:58.666Z,98995.42
2022-12-23T17:42:31.951Z,98996.96
2022-12-23T17:45:04.596Z,99000.07
2022-12-23T17:47:37.053Z,99003.30
2022-12-23T17:50:12.578Z,99001.08
2022-12-23T17:52:45.014Z,98997.93
2022-12-23T17:55:22.959Z,98996.80
2022-12-23T17:57:55.632Z,99002.29
2022-12-23T18:00:33.967Z,99009.92
2022-12-23T18:03:08.347Z,99009.44
2022-12-23T18:05:40.739Z,99008.48
2022-12-23T18:08:13.111Z,99017.73
2022-12-23T18:10:45.921Z,99023.40
2022-12-23T18:13:20.702Z,99031.63
2022-12-23T18:15:53.149Z,99027.13
2022-12-23T18:18:37.783Z,99026.35
2022-12-23T18:21:18.533Z,99026.79
2022-12-23T18:23:51.576Z,99026.67
2022-12-23T18:26:24.026Z,99026.52
2022-12-23T18:28:56.417Z,99031.73
2022-12-23T18:31:28.950Z,99024.63
2022-12-23T18:34:01.430Z,99024.20
2022-12-23T18:36:35.052Z,99016.21
2022-12-23T18:39:07.583Z,99015.48
2022-12-23T18:41:39.978Z,99015.44
2022-12-23T18:44:20.691Z,99025.73
2022-12-23T18:46:53.727Z,99028.75
2022-12-23T18:49:26.151Z,99025.58
2022-12-23T18:51:58.527Z,99025.48
2022-12-23T18:54:31.085Z,99030.58
2022-12-23T18:57:04.361Z,99036.28
2022-12-23T18:59:39.053Z,99040.67
2022-12-23T19:02:15.411Z,99042.77
2022-12-23T19:04:47.797Z,99048.72
2022-12-23T19:07:20.164Z,99053.02
2022-12-23T19:09:52.537Z,99055.81
2022-12-23T19:12:24.997Z,99058.65
2022-12-23T19:14:57.435Z,99062.81
2022-12-23T19:17:29.811Z,99064.91
2022-12-23T19:20:02.196Z,99067.86
2022-12-23T19:22:34.639Z,99069.83
2022-12-23T19:25:08.512Z,99069.88
2022-12-23T19:27:42.118Z,99074.44
2022-12-23T19:30:17.433Z,99075.50
2022-12-23T19:32:53.368Z,99077.31
2022-12-23T19:35:25.721Z,99081.44
2022-12-23T19:37:58.089Z,99079.47
2022-12-23T19:40:31.305Z,99080.58
2022-12-23T19:43:03.977Z,99076.68
2022-12-23T19:45:36.540Z,99080.55
2022-12-23T19:48:09.133Z,99077.05
2022-12-23T19:50:41.515Z,99075.55
2022-12-23T19:53:15.251Z,99077.32
2022-12-23T19:55:59.086Z,99070.20
2022-12-23T19:58:36.071Z,99072.23
2022-12-23T20:01:11.248Z,99071.98
2022-12-23T20:03:45.318Z,99073.23
2022-12-23T20:06:19.638Z,99076.15
2022-12-23T20:08:58.048Z,99080.79
2022-12-23T20:11:35.972Z,99079.31
2022-12-23T20:14:09.156Z,99080.70
2022-12-23T20:16:42.187Z,99080.30
2022-12-23T20:19:15.043Z,99083.04
2022-12-23T20:21:47.775Z,99081.01
2022-12-23T20:24:20.149Z,99079.56
2022-12-23T20:26:52.547Z,99078.61
2022-12-23T20:29:24.846Z,99077.79
2022-12-23T20:31:57.246Z,99075.77
2022-12-23T20:34:34.717Z,99067.45
2022-12-23T20:37:11.930Z,99063.84
2022-12-23T20:39:44.321Z,99065.07
2022-12-23T20:42:16.678Z,99069.45
2022-12-23T20:44:50.932Z,99070.53
2022-12-23T20:47:23.334Z,99072.70
2022-12-23T20:49:55.682Z,99080.77
2022-12-23T20:52:28.087Z,99084.07
2022-12-23T20:55:01.787Z,99090.75
2022-12-23T20:57:36.024Z,99091.46
2022-12-23T21:00:10.213Z,99090.42
2022-12-23T21:02:42.840Z,99088.71
2022-12-23T21:05:15.387Z,99089.66
2022-12-23T21:07:47.900Z,99096.46
2022-12-23T21:10:20.609Z,99099.02
2022-12-23T21:12:52.981Z,99099.67
2022-12-23T21:15:25.428Z,99100.13
2022-12-23T21:17:57.805Z,99101.64
2022-12-23T21:20:30.153Z,99096.00
2022-12-23T21:23:02.598Z,99100.38
2022-12-23T21:25:34.970Z,99104.89
2022-12-23T21:28:07.602Z,99102.36
2022-12-23T21:30:40.025Z,99108.61
2022-12-23T21:33:13.856Z,99107.56
2022-12-23T21:35:46.945Z,99106.72
2022-12-23T21:38:19.352Z,99103.64
2022-12-23T21:40:51.694Z,99107.13
2022-12-23T21:43:24.050Z,99113.68
2022-12-23T21:46:00.382Z,99117.77
2022-12-23T21:48:35.955Z,99115.52
2022-12-23T21:51:11.414Z,99118.77
2022-12-23T21:53:45.027Z,99116.95
2022-12-23T21:56:19.625Z,99119.73
2022-12-23T21:58:55.481Z,99120.90
2022-12-23T22:01:28.703Z,99118.15
2022-12-23T22:04:01.212Z,99115.02
2022-12-23T22:06:36.681Z,99116.57
2022-12-23T22:09:11.653Z,99120.91
2022-12-23T22:11:44.913Z,99130.34
2022-12-23T22:14:19.139Z,99127.30
2022-12-23T22:16:51.561Z,99128.96
2022-12-23T22:19:24.067Z,99129.58
2022-12-23T22:21:56.596Z,99131.17
2022-12-23T22:24:29.326Z,99121.95
2022-12-23T22:27:01.776Z,99123.11
2022-12-23T22:29:34.329Z,99124.52
2022-12-23T22:32:07.201Z,99141.30
2022-12-23T22:34:39.634Z,99150.48
2022-12-23T22:37:11.877Z,99148.68
2022-12-23T22:39:44.226Z,99154.76
2022-12-23T22:42:16.624Z,99154.22
2022-12-23T22:44:49.029Z,99155.91
2022-12-23T22:47:21.627Z,99150.88
2022-12-23T22:49:54.030Z,99152.58
2022-12-23T22:52:27.166Z,99155.55
2022-12-23T22:54:59.513Z,99153.10
2022-12-23T22:57:31.885Z,99151.23
2022-12-23T23:00:11.881Z,99150.95
2022-12-23T23:02:45.081Z,99148.56
2022-12-23T23:05:17.969Z,99145.64
2022-12-23T23:07:50.471Z,99139.75
2022-12-23T23:10:22.868Z,99140.82
2022-12-23T23:12:55.246Z,99138.06
2022-12-23T23:15:27.613Z,99140.81
2022-12-23T23:18:00.115Z,99142.69
2022-12-23T23:20:32.512Z,99142.42
2022-12-23T23:23:04.907Z,99138.21
2022-12-23T23:25:37.334Z,99138.92
2022-12-23T23:28:09.815Z,99138.54
2022-12-23T23:30:42.720Z,99133.39
2022-12-23T23:33:15.119Z,99132.48
2022-12-23T23:35:47.489Z,99128.17
2022-12-23T23:38:19.894Z,99129.42
2022-12-23T23:40:54.620Z,99127.24
2022-12-23T23:43:27.221Z,99128.53
2022-12-23T23:45:59.769Z,99129.81
2022-12-23T23:48:32.223Z,99130.29
2022-12-23T23:51:09.199Z,99132.27
2022-12-23T23:53:41.688Z,99132.43
2022-12-23T23:56:14.163Z,99134.04
2022-12-23T23:58:46.506Z,99131.09
